• Join FlightAware (Why Join?)
  • Login
  • US Flag 
12:00AM EDT


 

Airport Tracker/Info


-or-


 

Live Flight TrackerFlight Track Log ✈ CUA5641 ✈ 14-Jul-2013 ✈ ZBSJ / SJW - ZLXY / XIY

Flight Track Log - Related Links

Times and Time Zones

All times are in EDT time to prevent confusion due to time zone crossing. See the CUA5641 flight status page for this flight to view local times or setup timezone preferences in your user account.

Time Position Orientation Groundspeed Altitude Reporting Facility
EDT Latitude Longitude Course Direction KTS MPH feet Rate Location/Type
04:05AM 37.7301 113.7752 233° Southwest  Level Estimated
04:06AM 37.6797 113.6921 233° Southwest  Level Estimated
04:07AM 37.6293 113.6092 232° Southwest  Level Estimated
04:08AM 37.5787 113.5263 232° Southwest  Level Estimated
04:09AM 37.5281 113.4436 232° Southwest  Level Estimated
04:10AM 37.4775 113.3609 232° Southwest  Level Estimated
04:11AM 37.4268 113.2784 232° Southwest  Level Estimated
04:12AM 37.3760 113.1960 232° Southwest  Level Estimated
04:13AM 37.3252 113.1137 232° Southwest  Level Estimated
04:14AM 37.2743 113.0315 232° Southwest  Level Estimated
04:15AM 37.2234 112.9494 232° Southwest  Level Estimated
04:16AM 37.1724 112.8675 232° Southwest  Level Estimated
04:17AM 37.1214 112.7856 232° Southwest  Level Estimated
04:18AM 37.0703 112.7039 232° Southwest  Level Estimated
04:19AM 37.0191 112.6223 232° Southwest  Level Estimated
04:20AM 36.9679 112.5407 232° Southwest  Level Estimated
04:21AM 36.9167 112.4593 232° Southwest  Level Estimated
04:22AM 36.8653 112.3780 232° Southwest  Level Estimated
04:23AM 36.8140 112.2968 232° Southwest  Level Estimated
04:24AM 36.7625 112.2157 232° Southwest  Level Estimated
04:25AM 36.7110 112.1348 232° Southwest  Level Estimated
04:26AM 36.6595 112.0539 232° Southwest  Level Estimated
04:27AM 36.6079 111.9731 231° Southwest  Level Estimated
04:28AM 36.5563 111.8925 231° Southwest  Level Estimated
04:29AM 36.5046 111.8119 231° Southwest  Level Estimated
04:30AM 36.4528 111.7315 231° Southwest  Level Estimated
04:31AM 36.4010 111.6512 231° Southwest  Level Estimated
04:32AM 36.3491 111.5709 231° Southwest  Level Estimated
04:33AM 36.2972 111.4908 231° Southwest  Level Estimated
04:34AM 36.2452 111.4108 231° Southwest  Level Estimated
04:35AM 36.1932 111.3309 231° Southwest  Level Estimated
04:36AM 36.1411 111.2511 231° Southwest  Level Estimated
04:37AM 36.0890 111.1714 231° Southwest  Level Estimated
04:38AM 36.0368 111.0918 231° Southwest  Level Estimated
04:39AM 35.9846 111.0123 231° Southwest  Level Estimated
04:40AM 35.9323 110.9330 231° Southwest  Level Estimated
04:41AM 35.8799 110.8537 231° Southwest  Level Estimated
04:42AM 35.8275 110.7745 231° Southwest  Level Estimated
04:43AM 35.7751 110.6955 231° Southwest  Level Estimated
04:44AM 35.7226 110.6165 231° Southwest  Level Estimated
04:45AM 35.6700 110.5377 231° Southwest  Level Estimated
04:46AM 35.6174 110.4589 231° Southwest  Level Estimated
04:47AM 35.5648 110.3803 231° Southwest  Level Estimated
04:48AM 35.5121 110.3017 231° Southwest  Level Estimated
04:49AM 35.4593 110.2233 230° Southwest  Level Estimated
04:50AM 35.4065 110.1450 230° Southwest  Level Estimated
04:51AM 35.3537 110.0667 230° Southwest  Level Estimated
04:52AM 35.3008 109.9886 230° Southwest  Level Estimated
04:53AM 35.2478 109.9106 230° Southwest  Level Estimated
04:54AM 35.1948 109.8326 230° Southwest  Level Estimated
04:55AM 35.1417 109.7548 230° Southwest  Level Estimated
04:56AM 35.0886 109.6771 230° Southwest  Level Estimated
04:57AM 35.0355 109.5995 230° Southwest  Level Estimated
04:58AM 34.9823 109.5219 230° Southwest  Level Estimated
04:59AM 34.9290 109.4445 230° Southwest  Level Estimated
05:00AM 34.8757 109.3672 230° Southwest  Level Estimated
05:01AM 34.8224 109.2900 230° Southwest  Level Estimated
05:02AM 34.7690 109.2129 230° Southwest  Level Estimated
05:03AM 34.7155 109.1358 230° Southwest  Level Estimated
05:04AM 34.6620 109.0589 230° Southwest  Level Estimated
05:05AM 34.6085 108.9821 230° Southwest  Level Estimated
05:06AM 34.5549 108.9054 230° Southwest  Level Estimated
05:07AM 34.5013 108.8288 230° Southwest  Level Estimated
05:08AM 34.4476 108.7522 230° Southwest  Level Estimated
05:09AM 34.4471 108.7516 230° Southwest  Level Estimated
05:10AM 34.4471 108.7516 121° Southeast  Level Estimated
05:11AM 34.4471 108.7516 121° Southeast  Level Estimated
05:12AM 34.4471 108.7516 121° Southeast  Level Estimated
05:13AM 34.4471 108.7516 121° Southeast  Level Estimated
05:14AM 34.4471 108.7516 121° Southeast  Level Estimated
05:15AM 34.4471 108.7516 121° Southeast  Level Estimated
05:16AM 34.4471 108.7516 121° Southeast  Level Estimated
05:17AM 34.4471 108.7516 121° Southeast  Level Estimated
05:18AM 34.4471 108.7516 121° Southeast  Level Estimated
05:19AM 34.4471 108.7516 121° Southeast  Level Estimated
05:20AM 34.4471 108.7516 121° Southeast  Level Estimated
05:21AM 34.4471 108.7516 121° Southeast  Level Estimated
05:22AM 34.4471 108.7516 121° Southeast  Level Estimated